EmailTwitter


Observations de surface / France / LFPO (07149)

Régions: Québec | Canada | États-Unis | Europe | France | UK | Ailleurs
Station
Affichage
Infos & localisation pour LFPO (07149) | Aide pour décoder les METARs

Observations prises le 2018-10-15 à 14H30 UTC à PARIS/ORLY, FR (LFPO)

Température: 26.0 Celsius

Point de rosée: 7.0 Celsius

Humidité relative: 30%

Indice Humidex: 26.

Vents: Sud-est à 19 km/h ou 10 noeuds.

Pression au niveau moyen de la mer: 101.10 kilopascals.

Observation METAR:

LFPO 151430Z 14010KT 120V180 CAVOK 26/07 Q1011 NOSIG=